Time;durP1;ratioP1;P1;durP2;ratioP2;P2;SDS_P1;SDS_P2;PMS_P1;PMS_P2;Temp;Humidity;BMP_temperature;BMP_pressure;BME280_temperature;BME280_humidity;BME280_pressure;Samples;Min_cycle;Max_cycle;Signal;HPM_P1;HPM_P2
2022/01/14 00:00:58;;;;;;;8.60;4.20;;;;;;;;;;7388592;19;20002;-72
2022/01/14 00:03:24;;;;;;;8.32;3.60;;;;;;;;;;7390625;19;20114;-72
2022/01/14 00:05:49;;;;;;;11.48;4.57;;;;;;;;;;7392155;19;20398;-72
2022/01/14 00:08:15;;;;;;;7.30;3.47;;;;;;;;;;7388529;19;20144;-72
2022/01/14 00:10:41;;;;;;;7.28;2.88;;;;;;;;;;7389565;19;20342;-72
2022/01/14 00:13:26;;;;;;;8.95;3.33;;;;;;;;;;7387957;19;20018;-72
2022/01/14 00:15:52;;;;;;;7.20;3.38;;;;;;;;;;7391402;19;20010;-72
2022/01/14 00:18:17;;;;;;;7.50;3.15;;;;;;;;;;7387955;19;20010;-72
2022/01/14 00:20:42;;;;;;;6.38;3.20;;;;;;;;;;7391453;19;20018;-72
2022/01/14 00:23:08;;;;;;;12.10;3.83;;;;;;;;;;7390379;19;20406;-72
2022/01/14 00:33:48;;;;;;;10.07;3.72;;;;;;;;;;7385939;19;20014;-72
2022/01/14 00:36:14;;;;;;;8.60;3.75;;;;;;;;;;7388126;19;20360;-72
2022/01/14 00:38:39;;;;;;;9.20;4.78;;;;;;;;;;7385496;19;20007;-72
2022/01/14 00:41:04;;;;;;;8.48;3.72;;;;;;;;;;7391686;19;20015;-72
2022/01/14 00:43:30;;;;;;;11.40;4.38;;;;;;;;;;7388896;19;20017;-72
2022/01/14 00:45:55;;;;;;;11.60;3.95;;;;;;;;;;7390198;19;20119;-72
2022/01/14 00:48:21;;;;;;;11.38;4.93;;;;;;;;;;7385170;19;20337;-72
2022/01/14 00:50:46;;;;;;;9.98;3.78;;;;;;;;;;7390024;19;20026;-72
2022/01/14 00:53:12;;;;;;;9.63;3.53;;;;;;;;;;7387610;19;20505;-72
2022/01/14 00:55:48;;;;;;;10.85;3.80;;;;;;;;;;7388124;19;20018;-72
2022/01/14 01:01:07;;;;;;;18.77;5.32;;;;;;;;;;7390613;19;20029;-72
2022/01/14 01:03:33;;;;;;;8.32;4.65;;;;;;;;;;7385952;19;20014;-72
2022/01/14 01:05:59;;;;;;;8.00;3.50;;;;;;;;;;7388518;19;20014;-72
2022/01/14 01:08:26;;;;;;;10.82;3.58;;;;;;;;;;7385947;19;20013;-72
2022/01/14 01:10:52;;;;;;;8.98;3.60;;;;;;;;;;7389316;19;20003;-72
2022/01/14 01:13:25;;;;;;;13.80;5.72;;;;;;;;;;7387248;19;20011;-72
2022/01/14 01:15:51;;;;;;;7.50;3.28;;;;;;;;;;7389245;19;20034;-72
2022/01/14 01:18:18;;;;;;;10.82;5.13;;;;;;;;;;7383911;19;20022;-72
2022/01/14 01:20:43;;;;;;;9.40;4.07;;;;;;;;;;7388843;19;20014;-72
2022/01/14 01:23:08;;;;;;;7.57;3.83;;;;;;;;;;7385659;19;20011;-72
2022/01/14 01:25:48;;;;;;;8.50;3.78;;;;;;;;;;7388904;19;20015;-72
2022/01/14 01:28:13;;;;;;;8.60;3.40;;;;;;;;;;7385896;19;20018;-72
2022/01/14 01:31:04;;;;;;;14.30;5.00;;;;;;;;;;7387878;19;20464;-72
2022/01/14 01:33:29;;;;;;;8.98;3.35;;;;;;;;;;7386655;19;20122;-72
2022/01/14 01:35:56;;;;;;;7.78;3.58;;;;;;;;;;7388418;19;20442;-72
2022/01/14 01:38:22;;;;;;;7.78;3.53;;;;;;;;;;7385604;19;20374;-72
2022/01/14 01:40:48;;;;;;;18.67;6.70;;;;;;;;;;7389743;19;20018;-72
2022/01/14 01:43:16;;;;;;;11.13;5.20;;;;;;;;;;7386488;19;20494;-72
2022/01/14 01:45:45;;;;;;;22.63;6.95;;;;;;;;;;7384730;19;20020;-72
2022/01/14 01:48:10;;;;;;;10.55;3.85;;;;;;;;;;7386286;19;20024;-72
2022/01/14 01:50:36;;;;;;;13.70;4.80;;;;;;;;;;7388921;19;20012;-72
2022/01/14 01:53:03;;;;;;;8.88;4.43;;;;;;;;;;7387848;19;20039;-72
2022/01/14 01:55:28;;;;;;;9.23;3.67;;;;;;;;;;7388013;19;20011;-72
2022/01/14 01:57:54;;;;;;;8.90;4.45;;;;;;;;;;7385841;19;20612;-72
2022/01/14 02:00:22;;;;;;;10.90;4.10;;;;;;;;;;7385881;19;20090;-72
2022/01/14 02:02:49;;;;;;;7.28;3.60;;;;;;;;;;7386068;19;20048;-72
2022/01/14 02:05:16;;;;;;;6.90;3.80;;;;;;;;;;7387600;19;20349;-72
2022/01/14 02:07:42;;;;;;;10.38;3.67;;;;;;;;;;7384057;19;20480;-72
2022/01/14 02:10:08;;;;;;;9.88;3.22;;;;;;;;;;7383336;19;20013;-72
2022/01/14 02:12:38;;;;;;;9.15;4.03;;;;;;;;;;7385929;19;20011;-72
2022/01/14 02:15:11;;;;;;;8.73;3.95;;;;;;;;;;7387259;19;20013;-72
2022/01/14 02:23:07;;;;;;;10.73;4.20;;;;;;;;;;7385993;19;20449;-72
2022/01/14 02:25:33;;;;;;;7.65;3.60;;;;;;;;;;7388259;19;20018;-72
2022/01/14 02:28:08;;;;;;;9.45;3.80;;;;;;;;;;7385057;19;20070;-72
2022/01/14 02:30:36;;;;;;;9.30;3.53;;;;;;;;;;7382532;19;20409;-72
2022/01/14 02:33:02;;;;;;;8.13;3.67;;;;;;;;;;7383256;19;20018;-72
2022/01/14 02:35:29;;;;;;;13.80;5.47;;;;;;;;;;7384582;19;20023;-72
2022/01/14 02:37:54;;;;;;;8.82;4.05;;;;;;;;;;7385565;19;20450;-72
2022/01/14 02:40:21;;;;;;;11.48;4.05;;;;;;;;;;7384140;19;20047;-72
2022/01/14 02:42:49;;;;;;;10.55;3.70;;;;;;;;;;7382888;19;20174;-72
2022/01/14 02:45:16;;;;;;;8.93;4.13;;;;;;;;;;7387017;19;20114;-72
2022/01/14 02:47:42;;;;;;;9.02;3.72;;;;;;;;;;7385069;19;20357;-72
2022/01/14 02:50:09;;;;;;;10.30;4.00;;;;;;;;;;7382703;19;20023;-72
2022/01/14 02:52:54;;;;;;;8.82;3.55;;;;;;;;;;7386644;19;20014;-72
2022/01/14 02:55:23;;;;;;;8.98;3.05;;;;;;;;;;7384823;19;20022;-72
2022/01/14 02:57:51;;;;;;;10.75;3.90;;;;;;;;;;7383806;19;20011;-72
2022/01/14 03:00:25;;;;;;;10.35;4.30;;;;;;;;;;7381435;19;20025;-71
2022/01/14 03:02:51;;;;;;;8.68;3.58;;;;;;;;;;7381639;19;20021;-72
2022/01/14 03:05:18;;;;;;;6.75;3.58;;;;;;;;;;7385395;19;20473;-72
2022/01/14 03:07:45;;;;;;;10.25;4.70;;;;;;;;;;7384896;19;20299;-72
2022/01/14 03:10:12;;;;;;;8.48;2.90;;;;;;;;;;7382517;19;20013;-72
2022/01/14 03:12:40;;;;;;;7.13;3.20;;;;;;;;;;7384700;19;20014;-72
2022/01/14 03:15:07;;;;;;;7.18;3.13;;;;;;;;;;7383982;19;20027;-71
2022/01/14 03:17:33;;;;;;;6.82;3.28;;;;;;;;;;7384052;19;20410;-72
2022/01/14 03:20:00;;;;;;;14.77;5.55;;;;;;;;;;7382349;19;20010;-72
2022/01/14 03:22:33;;;;;;;7.47;3.20;;;;;;;;;;7386952;19;20401;-72
2022/01/14 03:27:42;;;;;;;8.80;3.10;;;;;;;;;;7383082;19;20020;-72
2022/01/14 03:30:08;;;;;;;7.90;3.30;;;;;;;;;;7381882;19;20142;-72
2022/01/14 03:32:34;;;;;;;10.05;5.35;;;;;;;;;;7384992;19;20015;-72
2022/01/14 03:34:59;;;;;;;7.93;3.40;;;;;;;;;;7383510;19;20138;-72
2022/01/14 03:37:24;;;;;;;8.48;3.88;;;;;;;;;;7385648;19;20035;-72
2022/01/14 03:39:49;;;;;;;6.30;2.85;;;;;;;;;;7380477;19;20014;-72
2022/01/14 03:42:15;;;;;;;7.45;3.22;;;;;;;;;;7385726;19;20465;-72
2022/01/14 03:44:40;;;;;;;6.18;3.40;;;;;;;;;;7382919;19;20048;-72
2022/01/14 03:47:05;;;;;;;6.88;3.08;;;;;;;;;;7385047;19;20056;-72
2022/01/14 03:49:31;;;;;;;10.88;4.00;;;;;;;;;;7381214;19;20326;-72
2022/01/14 03:51:56;;;;;;;8.75;3.95;;;;;;;;;;7385340;19;20139;-72
2022/01/14 03:54:22;;;;;;;8.38;3.58;;;;;;;;;;7382684;19;20011;-72
2022/01/14 03:56:47;;;;;;;7.75;3.50;;;;;;;;;;7384433;19;20034;-72
2022/01/14 03:59:13;;;;;;;9.23;3.80;;;;;;;;;;7379124;19;20003;-71
2022/01/14 04:01:38;;;;;;;10.57;3.85;;;;;;;;;;7378082;19;20014;-72
2022/01/14 04:04:03;;;;;;;11.52;4.32;;;;;;;;;;7381095;19;20014;-71
2022/01/14 04:06:30;;;;;;;6.95;3.80;;;;;;;;;;7382245;19;20383;-72
2022/01/14 04:08:56;;;;;;;6.38;2.88;;;;;;;;;;7379428;19;20099;-72
2022/01/14 04:11:22;;;;;;;7.78;3.08;;;;;;;;;;7381388;19;20011;-72
2022/01/14 04:13:51;;;;;;;6.07;2.90;;;;;;;;;;7380972;19;20303;-72
2022/01/14 04:16:19;;;;;;;6.53;3.03;;;;;;;;;;7383033;19;20007;-72
2022/01/14 04:18:45;;;;;;;9.20;3.83;;;;;;;;;;7379002;19;20015;-72
2022/01/14 04:21:10;;;;;;;10.15;3.75;;;;;;;;;;7382054;19;20470;-72
2022/01/14 04:23:36;;;;;;;7.03;2.75;;;;;;;;;;7381613;19;20104;-72
2022/01/14 04:26:01;;;;;;;9.13;2.75;;;;;;;;;;7381470;19;20428;-72
2022/01/14 04:28:30;;;;;;;6.75;3.03;;;;;;;;;;7380899;19;20479;-72
2022/01/14 04:30:56;;;;;;;8.18;2.88;;;;;;;;;;7388582;19;20010;-72
2022/01/14 04:33:27;;;;;;;6.93;3.35;;;;;;;;;;7387871;19;20109;-72
2022/01/14 04:35:54;;;;;;;8.43;3.72;;;;;;;;;;7388621;19;20142;-72
2022/01/14 04:38:20;;;;;;;11.48;3.45;;;;;;;;;;7387200;19;20461;-72
2022/01/14 04:40:46;;;;;;;9.23;3.80;;;;;;;;;;7387514;19;20380;-72
2022/01/14 04:43:15;;;;;;;7.20;2.90;;;;;;;;;;7388190;19;20010;-72
2022/01/14 04:45:43;;;;;;;8.15;3.63;;;;;;;;;;7388413;19;20014;-72
2022/01/14 04:48:11;;;;;;;7.97;3.00;;;;;;;;;;7388029;19;20021;-72
2022/01/14 04:50:37;;;;;;;6.80;3.10;;;;;;;;;;7377992;19;21228;-71
2022/01/14 04:53:03;;;;;;;8.40;3.85;;;;;;;;;;7385312;19;20006;-71
2022/01/14 04:55:28;;;;;;;8.63;3.42;;;;;;;;;;7384662;19;20325;-71
2022/01/14 04:57:55;;;;;;;8.25;3.13;;;;;;;;;;7385793;19;20015;-72
2022/01/14 05:00:22;;;;;;;7.47;3.25;;;;;;;;;;7381464;19;19999;-71
2022/01/14 05:02:48;;;;;;;7.03;3.40;;;;;;;;;;7385246;19;20441;-71
2022/01/14 05:05:16;;;;;;;7.00;2.83;;;;;;;;;;7385123;19;20010;-72
2022/01/14 05:07:43;;;;;;;6.47;2.63;;;;;;;;;;7385084;19;20085;-71
2022/01/14 05:10:20;;;;;;;7.93;3.33;;;;;;;;;;7379593;19;20486;-71
2022/01/14 05:12:46;;;;;;;8.65;3.35;;;;;;;;;;7385085;19;20038;-71
2022/01/14 05:15:13;;;;;;;8.07;3.45;;;;;;;;;;7384791;19;20107;-71
2022/01/14 05:17:38;;;;;;;7.43;3.03;;;;;;;;;;7385920;19;20074;-71
2022/01/14 05:20:05;;;;;;;10.10;4.70;;;;;;;;;;7381639;19;20115;-72
2022/01/14 05:22:33;;;;;;;7.03;3.55;;;;;;;;;;7384498;19;20345;-71
2022/01/14 05:24:58;;;;;;;8.80;3.05;;;;;;;;;;7380152;19;20965;-71
2022/01/14 05:27:23;;;;;;;9.52;3.72;;;;;;;;;;7378464;19;20062;-71
2022/01/14 05:29:49;;;;;;;7.57;2.88;;;;;;;;;;7378655;19;20030;-71
2022/01/14 05:32:15;;;;;;;10.30;4.00;;;;;;;;;;7373161;19;20015;-71
2022/01/14 05:34:42;;;;;;;11.13;4.00;;;;;;;;;;7380010;19;20007;-71
2022/01/14 05:37:09;;;;;;;8.80;3.33;;;;;;;;;;7382355;19;20887;-71
2022/01/14 05:39:35;;;;;;;11.43;4.03;;;;;;;;;;7380531;19;20010;-71
2022/01/14 05:42:01;;;;;;;8.57;3.45;;;;;;;;;;7382137;19;20017;-71
2022/01/14 05:44:27;;;;;;;8.35;3.53;;;;;;;;;;7384386;19;20003;-71
2022/01/14 05:46:55;;;;;;;9.68;3.72;;;;;;;;;;7384983;19;20027;-72
2022/01/14 05:49:21;;;;;;;9.88;3.80;;;;;;;;;;7382625;19;20041;-71
2022/01/14 05:51:47;;;;;;;11.45;4.38;;;;;;;;;;7378679;19;20014;-71
2022/01/14 05:54:13;;;;;;;9.57;4.03;;;;;;;;;;7382027;19;20006;-72
2022/01/14 05:56:38;;;;;;;7.72;3.03;;;;;;;;;;7381720;19;20011;-72
2022/01/14 05:59:04;;;;;;;10.80;4.20;;;;;;;;;;7381237;19;20006;-72
2022/01/14 06:01:30;;;;;;;9.85;3.75;;;;;;;;;;7381706;19;20023;-71
2022/01/14 06:03:57;;;;;;;11.23;4.30;;;;;;;;;;7383489;19;20397;-71
2022/01/14 06:06:22;;;;;;;8.93;3.40;;;;;;;;;;7381366;19;20139;-71
2022/01/14 06:08:49;;;;;;;8.73;3.42;;;;;;;;;;7382359;19;20018;-71
2022/01/14 06:11:14;;;;;;;10.82;4.38;;;;;;;;;;7382350;19;20039;-71
2022/01/14 06:13:40;;;;;;;14.90;5.18;;;;;;;;;;7384327;19;20003;-71
2022/01/14 06:16:05;;;;;;;11.45;3.78;;;;;;;;;;7380789;19;20006;-71
2022/01/14 06:18:30;;;;;;;10.65;4.07;;;;;;;;;;7380659;19;20405;-71
2022/01/14 06:20:55;;;;;;;11.57;4.38;;;;;;;;;;7382248;19;20563;-71
2022/01/14 06:23:21;;;;;;;13.40;5.32;;;;;;;;;;7381444;19;20006;-71
2022/01/14 06:25:46;;;;;;;11.05;4.88;;;;;;;;;;7378759;19;20091;-71
2022/01/14 06:28:11;;;;;;;8.70;4.10;;;;;;;;;;7381158;19;20021;-71
2022/01/14 06:30:37;;;;;;;6.78;3.25;;;;;;;;;;7377301;19;20010;-71
2022/01/14 06:33:02;;;;;;;7.45;3.05;;;;;;;;;;7381005;19;20023;-71
2022/01/14 06:35:27;;;;;;;8.63;3.28;;;;;;;;;;7380301;19;20007;-71
2022/01/14 06:37:53;;;;;;;8.48;3.92;;;;;;;;;;7382341;19;20090;-73
2022/01/14 06:40:18;;;;;;;8.63;3.30;;;;;;;;;;7378815;19;20026;-72
2022/01/14 06:42:44;;;;;;;8.23;3.20;;;;;;;;;;7371369;19;20006;-72
2022/01/14 06:45:10;;;;;;;10.00;3.55;;;;;;;;;;7376581;19;20468;-74
2022/01/14 06:47:35;;;;;;;9.20;3.83;;;;;;;;;;7376980;19;20002;-71
2022/01/14 06:50:02;;;;;;;8.80;3.17;;;;;;;;;;7379577;19;20453;-73
2022/01/14 06:52:27;;;;;;;7.20;2.78;;;;;;;;;;7384194;19;20013;-72
2022/01/14 06:54:52;;;;;;;8.82;3.28;;;;;;;;;;7382538;19;20018;-72
2022/01/14 06:57:18;;;;;;;10.27;3.50;;;;;;;;;;7383891;19;20026;-72
2022/01/14 06:59:43;;;;;;;9.90;3.72;;;;;;;;;;7382189;19;20006;-72
2022/01/14 07:02:12;;;;;;;11.70;4.70;;;;;;;;;;7383896;19;20475;-72
2022/01/14 07:04:37;;;;;;;10.45;4.05;;;;;;;;;;7384850;19;20501;-72
2022/01/14 07:07:03;;;;;;;10.50;3.35;;;;;;;;;;7379893;19;19994;-73
2022/01/14 07:09:30;;;;;;;8.98;3.78;;;;;;;;;;7383380;19;20006;-72
2022/01/14 07:11:58;;;;;;;7.10;3.08;;;;;;;;;;7381010;19;20006;-70
2022/01/14 07:14:24;;;;;;;8.30;3.78;;;;;;;;;;7381369;19;20015;-71
2022/01/14 07:16:49;;;;;;;8.13;3.38;;;;;;;;;;7382225;19;20010;-71
2022/01/14 07:19:17;;;;;;;8.95;3.83;;;;;;;;;;7378029;19;20294;-72
2022/01/14 07:21:42;;;;;;;6.93;2.83;;;;;;;;;;7379381;19;20029;-70
2022/01/14 07:24:09;;;;;;;8.77;3.38;;;;;;;;;;7385351;19;20050;-71
2022/01/14 07:26:34;;;;;;;7.95;3.65;;;;;;;;;;7383249;19;20320;-70
2022/01/14 07:29:00;;;;;;;9.88;3.65;;;;;;;;;;7381966;19;20002;-71
2022/01/14 07:31:25;;;;;;;7.32;3.35;;;;;;;;;;7381607;19;20002;-71
2022/01/14 07:33:50;;;;;;;6.60;3.10;;;;;;;;;;7382292;19;20010;-72
2022/01/14 07:36:16;;;;;;;7.97;3.25;;;;;;;;;;7382039;19;20039;-72
2022/01/14 07:38:41;;;;;;;8.32;3.65;;;;;;;;;;7383672;19;20078;-72
2022/01/14 07:41:07;;;;;;;7.57;3.28;;;;;;;;;;7383914;19;20014;-72
2022/01/14 07:43:34;;;;;;;9.00;3.15;;;;;;;;;;7384598;19;20117;-72
2022/01/14 07:45:59;;;;;;;11.02;3.10;;;;;;;;;;7383753;19;20141;-72
2022/01/14 07:48:25;;;;;;;9.85;3.63;;;;;;;;;;7381115;19;20030;-72
2022/01/14 07:50:50;;;;;;;11.00;3.90;;;;;;;;;;7383893;19;20769;-73
2022/01/14 07:53:15;;;;;;;9.57;3.50;;;;;;;;;;7384528;19;20010;-71
2022/01/14 07:55:41;;;;;;;11.43;4.28;;;;;;;;;;7380219;19;20070;-71
2022/01/14 07:58:06;;;;;;;12.40;5.32;;;;;;;;;;7383135;19;20006;-73
2022/01/14 08:00:33;;;;;;;12.27;5.53;;;;;;;;;;7381932;19;20010;-72
2022/01/14 08:02:59;;;;;;;13.55;5.45;;;;;;;;;;7383213;19;20003;-71
2022/01/14 08:05:24;;;;;;;13.02;4.97;;;;;;;;;;7387979;19;20050;-71
2022/01/14 08:07:52;;;;;;;11.65;4.82;;;;;;;;;;7389495;19;20007;-72
2022/01/14 08:10:17;;;;;;;10.32;4.15;;;;;;;;;;7388814;19;20027;-72
2022/01/14 08:12:43;;;;;;;8.85;3.78;;;;;;;;;;7387630;19;20018;-72
2022/01/14 08:15:10;;;;;;;9.73;4.07;;;;;;;;;;7390223;19;20027;-72
2022/01/14 08:17:35;;;;;;;9.00;4.20;;;;;;;;;;7388228;19;20119;-72
2022/01/14 08:20:01;;;;;;;12.68;5.45;;;;;;;;;;7388230;19;20563;-71
2022/01/14 08:22:28;;;;;;;9.98;4.20;;;;;;;;;;7389642;19;20014;-72
2022/01/14 08:24:54;;;;;;;13.23;5.30;;;;;;;;;;7391381;19;20520;-72
2022/01/14 08:27:20;;;;;;;10.30;4.97;;;;;;;;;;7389453;19;20014;-71
2022/01/14 08:29:47;;;;;;;12.80;5.25;;;;;;;;;;7385302;19;20004;-72
2022/01/14 08:32:13;;;;;;;11.25;5.20;;;;;;;;;;7387380;19;20034;-71
2022/01/14 08:34:39;;;;;;;9.35;4.70;;;;;;;;;;7390198;19;20468;-71
2022/01/14 08:37:04;;;;;;;10.27;3.90;;;;;;;;;;7390434;19;20017;-71
2022/01/14 08:39:29;;;;;;;9.65;4.35;;;;;;;;;;7388944;19;20550;-72
2022/01/14 08:41:55;;;;;;;12.88;5.32;;;;;;;;;;7385019;19;20018;-71
2022/01/14 08:44:21;;;;;;;10.98;4.80;;;;;;;;;;7388430;19;20010;-71
2022/01/14 08:46:46;;;;;;;10.98;4.28;;;;;;;;;;7384812;19;20006;-71
2022/01/14 08:49:11;;;;;;;13.05;5.38;;;;;;;;;;7382938;19;20015;-71
2022/01/14 08:51:38;;;;;;;12.38;5.13;;;;;;;;;;7384122;19;20022;-72
2022/01/14 08:54:04;;;;;;;9.90;4.95;;;;;;;;;;7385523;19;20034;-71
2022/01/14 08:56:31;;;;;;;11.02;5.20;;;;;;;;;;7384501;19;20022;-72
2022/01/14 08:58:56;;;;;;;17.75;7.45;;;;;;;;;;7383047;19;20006;-71
2022/01/14 09:01:21;;;;;;;11.35;4.90;;;;;;;;;;7383389;19;20513;-72
2022/01/14 09:03:48;;;;;;;12.07;5.55;;;;;;;;;;7385868;19;20046;-75
2022/01/14 09:06:13;;;;;;;11.70;5.32;;;;;;;;;;7382094;19;20042;-73
2022/01/14 09:08:38;;;;;;;12.73;5.68;;;;;;;;;;7379054;19;20002;-73
2022/01/14 09:11:06;;;;;;;13.57;6.13;;;;;;;;;;7381429;19;20437;-73
2022/01/14 09:13:31;;;;;;;15.35;5.47;;;;;;;;;;7376928;19;19999;-73
2022/01/14 09:15:57;;;;;;;13.77;5.97;;;;;;;;;;7380786;19;20017;-74
2022/01/14 09:18:22;;;;;;;16.52;7.05;;;;;;;;;;7383751;19;20015;-74
2022/01/14 09:20:47;;;;;;;17.00;6.65;;;;;;;;;;7389485;19;20170;-73
2022/01/14 09:23:17;;;;;;;9.05;5.10;;;;;;;;;;7385294;19;20489;-72
2022/01/14 09:25:42;;;;;;;14.02;6.10;;;;;;;;;;7384730;19;20698;-73
2022/01/14 09:28:08;;;;;;;16.00;7.35;;;;;;;;;;7382224;19;20003;-72
2022/01/14 09:30:33;;;;;;;13.20;6.35;;;;;;;;;;7385106;19;20420;-72
2022/01/14 09:32:58;;;;;;;12.77;6.50;;;;;;;;;;7382821;19;19995;-72
2022/01/14 09:35:24;;;;;;;14.00;6.88;;;;;;;;;;7387856;19;20021;-72
2022/01/14 09:37:50;;;;;;;14.57;6.07;;;;;;;;;;7385031;19;20417;-71
2022/01/14 09:40:17;;;;;;;13.93;6.53;;;;;;;;;;7384404;19;20118;-73
2022/01/14 09:42:50;;;;;;;11.75;5.90;;;;;;;;;;7382869;19;20115;-72
2022/01/14 09:45:17;;;;;;;11.68;5.47;;;;;;;;;;7382541;19;20018;-72
2022/01/14 09:47:47;;;;;;;15.52;6.82;;;;;;;;;;7383310;19;20034;-72
2022/01/14 09:50:12;;;;;;;18.58;8.60;;;;;;;;;;7383315;19;20002;-74
2022/01/14 09:52:38;;;;;;;14.32;5.80;;;;;;;;;;7384231;19;20035;-74
2022/01/14 09:55:04;;;;;;;15.85;7.75;;;;;;;;;;7384912;19;20010;-74
2022/01/14 09:57:30;;;;;;;17.95;7.90;;;;;;;;;;7380181;19;20079;-74
2022/01/14 09:59:55;;;;;;;14.93;6.97;;;;;;;;;;7378321;19;20014;-74
2022/01/14 10:02:38;;;;;;;16.10;8.10;;;;;;;;;;7380897;19;20010;-74
2022/01/14 10:05:06;;;;;;;16.52;7.40;;;;;;;;;;7385422;19;20011;-74
2022/01/14 10:07:33;;;;;;;16.73;7.55;;;;;;;;;;7383278;19;20014;-74
2022/01/14 10:10:00;;;;;;;23.10;9.15;;;;;;;;;;7383526;19;20026;-73
2022/01/14 10:12:31;;;;;;;20.02;8.02;;;;;;;;;;7384692;19;20158;-73
2022/01/14 10:15:14;;;;;;;19.48;9.30;;;;;;;;;;7386165;19;20019;-73
2022/01/14 10:17:43;;;;;;;15.73;7.85;;;;;;;;;;7381170;19;20014;-73
2022/01/14 10:20:13;;;;;;;16.38;7.47;;;;;;;;;;7380564;19;20029;-73
2022/01/14 10:22:42;;;;;;;19.52;8.20;;;;;;;;;;7384963;19;20027;-73
2022/01/14 10:25:12;;;;;;;17.55;9.15;;;;;;;;;;7385011;19;20009;-74
2022/01/14 10:27:43;;;;;;;16.75;8.60;;;;;;;;;;7377782;19;20018;-74
2022/01/14 10:30:23;;;;;;;14.55;7.22;;;;;;;;;;7380675;19;20011;-74
2022/01/14 10:33:00;;;;;;;16.00;7.35;;;;;;;;;;7382315;19;20111;-74
2022/01/14 10:35:30;;;;;;;16.23;7.97;;;;;;;;;;7385037;19;20022;-75
2022/01/14 10:38:00;;;;;;;18.40;7.47;;;;;;;;;;7381496;19;20334;-75
2022/01/14 10:40:28;;;;;;;15.68;7.95;;;;;;;;;;7374070;19;20010;-74
2022/01/14 10:43:01;;;;;;;21.10;9.13;;;;;;;;;;7376534;19;20402;-72
2022/01/14 10:45:28;;;;;;;18.95;8.73;;;;;;;;;;7377504;19;20003;-73
2022/01/14 10:48:02;;;;;;;19.23;8.82;;;;;;;;;;7376584;19;20017;-73
2022/01/14 10:50:33;;;;;;;18.10;9.18;;;;;;;;;;7378164;19;19998;-74
2022/01/14 10:53:01;;;;;;;15.85;8.30;;;;;;;;;;7382081;19;20407;-75
2022/01/14 10:55:29;;;;;;;17.00;9.23;;;;;;;;;;7383641;19;20006;-74
2022/01/14 10:57:55;;;;;;;18.25;9.90;;;;;;;;;;7382023;19;20014;-74
2022/01/14 11:00:22;;;;;;;19.13;10.63;;;;;;;;;;7380788;19;20125;-74
2022/01/14 11:02:52;;;;;;;20.80;10.63;;;;;;;;;;7380078;19;20084;-74
2022/01/14 11:05:23;;;;;;;21.92;10.00;;;;;;;;;;7382891;19;20470;-76
2022/01/14 11:07:50;;;;;;;22.60;11.05;;;;;;;;;;7381382;19;20472;-76
2022/01/14 11:10:25;;;;;;;18.45;9.88;;;;;;;;;;7382518;19;20077;-76
2022/01/14 11:12:53;;;;;;;19.15;9.52;;;;;;;;;;7380507;19;20014;-74
2022/01/14 11:15:19;;;;;;;18.35;9.60;;;;;;;;;;7379719;19;20481;-73
2022/01/14 11:17:49;;;;;;;19.13;9.35;;;;;;;;;;7380952;19;20078;-74
2022/01/14 11:20:20;;;;;;;17.73;9.45;;;;;;;;;;7375361;19;20467;-75
2022/01/14 11:25:30;;;;;;;15.98;8.48;;;;;;;;;;7373899;19;20034;-76
2022/01/14 11:27:58;;;;;;;19.02;9.25;;;;;;;;;;7369374;19;20010;-75
2022/01/14 11:30:39;;;;;;;21.15;9.35;;;;;;;;;;7371245;19;20018;-74
2022/01/14 11:33:06;;;;;;;16.20;8.50;;;;;;;;;;7373672;19;20010;-74
2022/01/14 11:35:35;;;;;;;16.58;8.35;;;;;;;;;;7374230;19;20015;-75
2022/01/14 11:38:01;;;;;;;14.90;8.18;;;;;;;;;;7370634;19;20351;-75
2022/01/14 11:40:47;;;;;;;14.68;8.23;;;;;;;;;;7380506;19;20014;-76
2022/01/14 11:43:39;;;;;;;14.23;7.20;;;;;;;;;;7373645;19;20361;-74
2022/01/14 11:46:05;;;;;;;17.73;8.10;;;;;;;;;;7378545;19;20010;-75
2022/01/14 11:48:39;;;;;;;14.38;7.60;;;;;;;;;;7375269;19;20114;-74
2022/01/14 11:51:07;;;;;;;15.32;8.05;;;;;;;;;;7381481;19;20014;-73
2022/01/14 11:53:53;;;;;;;16.40;8.48;;;;;;;;;;7380870;19;20018;-75
2022/01/14 11:56:31;;;;;;;17.00;8.63;;;;;;;;;;7381059;19;20429;-76
2022/01/14 11:59:18;;;;;;;17.45;8.57;;;;;;;;;;7375632;19;20030;-75
2022/01/14 12:01:55;;;;;;;12.57;7.38;;;;;;;;;;7375726;19;20018;-74
2022/01/14 12:04:21;;;;;;;16.50;7.78;;;;;;;;;;7375032;19;20705;-72
2022/01/14 12:06:49;;;;;;;13.48;7.45;;;;;;;;;;7374198;19;20011;-72
2022/01/14 12:09:15;;;;;;;13.25;7.82;;;;;;;;;;7375190;19;20104;-71
2022/01/14 12:11:40;;;;;;;14.43;7.90;;;;;;;;;;7372693;19;20441;-71
2022/01/14 12:14:06;;;;;;;14.07;7.55;;;;;;;;;;7376984;19;20073;-71
2022/01/14 12:16:48;;;;;;;17.00;8.45;;;;;;;;;;7378889;19;20006;-70
2022/01/14 12:19:16;;;;;;;14.65;7.32;;;;;;;;;;7373982;19;20416;-71
2022/01/14 12:21:48;;;;;;;16.40;7.60;;;;;;;;;;7377078;19;20106;-72
2022/01/14 12:24:19;;;;;;;16.38;8.70;;;;;;;;;;7378382;19;20025;-71
2022/01/14 12:27:11;;;;;;;15.32;7.28;;;;;;;;;;7380788;19;20210;-71
2022/01/14 12:29:38;;;;;;;15.13;7.68;;;;;;;;;;7372846;19;20487;-71
2022/01/14 12:32:09;;;;;;;12.18;7.18;;;;;;;;;;7378077;19;20022;-71
2022/01/14 12:34:55;;;;;;;14.93;7.93;;;;;;;;;;7378497;19;20067;-71
2022/01/14 12:37:37;;;;;;;12.25;6.75;;;;;;;;;;7376986;19;20021;-70
2022/01/14 12:40:11;;;;;;;13.73;7.90;;;;;;;;;;7373413;19;20368;-70
2022/01/14 12:42:38;;;;;;;10.73;6.70;;;;;;;;;;7378203;19;20014;-71
2022/01/14 12:45:07;;;;;;;17.42;7.18;;;;;;;;;;7379028;19;20030;-70
2022/01/14 12:47:38;;;;;;;12.65;6.82;;;;;;;;;;7378165;19;20130;-71
2022/01/14 12:50:12;;;;;;;16.88;7.85;;;;;;;;;;7374724;19;20014;-70
2022/01/14 12:52:46;;;;;;;15.93;7.77;;;;;;;;;;7380272;19;20021;-71
2022/01/14 12:55:12;;;;;;;14.90;6.50;;;;;;;;;;7383591;19;20052;-72
2022/01/14 12:57:37;;;;;;;12.63;7.88;;;;;;;;;;7381231;19;20010;-70
2022/01/14 13:00:07;;;;;;;13.07;7.35;;;;;;;;;;7375977;19;20389;-70
2022/01/14 13:02:33;;;;;;;14.45;7.43;;;;;;;;;;7377351;19;20363;-72
2022/01/14 13:05:03;;;;;;;17.90;7.07;;;;;;;;;;7373312;19;20505;-70
2022/01/14 13:07:28;;;;;;;13.55;7.53;;;;;;;;;;7381863;19;20023;-71
2022/01/14 13:09:54;;;;;;;16.27;7.72;;;;;;;;;;7376124;19;20010;-69
2022/01/14 13:12:26;;;;;;;13.15;7.32;;;;;;;;;;7376752;19;20185;-71
2022/01/14 13:14:56;;;;;;;12.00;6.88;;;;;;;;;;7376816;19;20015;-72
2022/01/14 13:17:26;;;;;;;14.07;6.70;;;;;;;;;;7377163;19;20118;-71
2022/01/14 13:19:57;;;;;;;11.93;6.93;;;;;;;;;;7371269;19;19998;-72
2022/01/14 13:22:23;;;;;;;13.43;6.65;;;;;;;;;;7375919;19;20034;-72
2022/01/14 13:24:56;;;;;;;13.45;7.32;;;;;;;;;;7377079;19;20066;-70
2022/01/14 13:27:38;;;;;;;13.25;7.55;;;;;;;;;;7376472;19;21013;-72
2022/01/14 13:30:16;;;;;;;12.95;7.10;;;;;;;;;;7373604;19;20010;-70
2022/01/14 13:32:43;;;;;;;11.85;6.53;;;;;;;;;;7376169;19;20049;-71
2022/01/14 13:35:11;;;;;;;11.88;6.18;;;;;;;;;;7377855;19;20578;-71
2022/01/14 13:37:38;;;;;;;9.90;6.43;;;;;;;;;;7378080;19;20025;-72
2022/01/14 13:40:19;;;;;;;9.85;6.13;;;;;;;;;;7373457;19;20140;-72
2022/01/14 13:43:01;;;;;;;13.77;6.38;;;;;;;;;;7379251;19;20107;-71
2022/01/14 13:45:26;;;;;;;12.30;6.45;;;;;;;;;;7382996;19;20313;-72
2022/01/14 13:48:08;;;;;;;15.82;6.57;;;;;;;;;;7381726;19;20007;-72
2022/01/14 13:50:39;;;;;;;14.68;6.43;;;;;;;;;;7382725;19;20018;-72
2022/01/14 13:53:05;;;;;;;12.13;6.97;;;;;;;;;;7383394;19;20478;-72
2022/01/14 13:55:37;;;;;;;12.25;6.43;;;;;;;;;;7387151;19;20010;-72
2022/01/14 13:58:22;;;;;;;12.32;6.32;;;;;;;;;;7388131;19;19999;-72
2022/01/14 14:00:49;;;;;;;11.60;6.85;;;;;;;;;;7387049;19;20462;-72
2022/01/14 14:03:39;;;;;;;14.27;6.85;;;;;;;;;;7381683;19;20058;-72
2022/01/14 14:06:20;;;;;;;11.82;6.35;;;;;;;;;;7386823;19;20010;-72
2022/01/14 14:16:52;;;;;;;10.60;5.35;;;;;;;;;;7386814;19;20021;-72
2022/01/14 14:19:19;;;;;;;11.75;6.15;;;;;;;;;;7383817;19;20234;-72
2022/01/14 14:21:45;;;;;;;11.50;6.30;;;;;;;;;;7385548;19;20327;-72
2022/01/14 14:24:13;;;;;;;9.88;6.00;;;;;;;;;;7385974;19;20022;-72
2022/01/14 14:26:42;;;;;;;14.02;5.68;;;;;;;;;;7385695;19;20063;-72
2022/01/14 14:29:24;;;;;;;9.50;5.65;;;;;;;;;;7384084;19;20352;-72
2022/01/14 14:31:49;;;;;;;11.15;5.55;;;;;;;;;;7385713;19;20453;-72
2022/01/14 14:34:15;;;;;;;12.82;5.97;;;;;;;;;;7386448;19;20006;-74
2022/01/14 14:36:41;;;;;;;10.10;5.30;;;;;;;;;;7384878;19;20011;-72
2022/01/14 14:39:07;;;;;;;9.25;5.10;;;;;;;;;;7383455;19;20464;-72
2022/01/14 14:41:33;;;;;;;16.08;6.32;;;;;;;;;;7384870;19;20437;-72
2022/01/14 14:43:58;;;;;;;17.85;8.45;;;;;;;;;;7385292;19;20010;-72
2022/01/14 14:46:23;;;;;;;11.57;5.63;;;;;;;;;;7383421;19;20010;-72
2022/01/14 14:48:49;;;;;;;11.20;5.93;;;;;;;;;;7384683;19;20018;-72
2022/01/14 14:51:16;;;;;;;9.25;4.68;;;;;;;;;;7385185;19;20006;-72
2022/01/14 14:53:41;;;;;;;10.10;5.82;;;;;;;;;;7387124;19;20002;-72
2022/01/14 14:56:10;;;;;;;11.00;5.53;;;;;;;;;;7383417;19;20035;-72
2022/01/14 14:58:38;;;;;;;8.88;4.78;;;;;;;;;;7385013;19;20076;-72
2022/01/14 15:01:07;;;;;;;7.22;4.57;;;;;;;;;;7383939;19;20026;-72
2022/01/14 15:03:35;;;;;;;11.68;6.40;;;;;;;;;;7385850;19;20014;-72
2022/01/14 15:06:00;;;;;;;8.90;5.00;;;;;;;;;;7384751;19;20014;-72
2022/01/14 15:08:25;;;;;;;8.70;4.70;;;;;;;;;;7384540;19;20030;-72
2022/01/14 15:10:52;;;;;;;8.40;4.85;;;;;;;;;;7380878;19;20329;-72